sensor_id;sensor_type;location;lat;lon;timestamp;pressure;altitude;pressure_sealevel;temperature;humidity
38054;BME280;23859;50.672;7.164;2024-01-06T00:02:25;36030.72;;;-140.95;66.42
38054;BME280;23859;50.672;7.164;2024-01-06T00:04:51;36062.88;;;-140.95;65.46
38054;BME280;23859;50.672;7.164;2024-01-06T00:07:17;36016.66;;;-140.95;65.90
38054;BME280;23859;50.672;7.164;2024-01-06T00:09:43;36040.78;;;-140.95;66.29
38054;BME280;23859;50.672;7.164;2024-01-06T00:12:09;35998.56;;;-140.95;66.11
38054;BME280;23859;50.672;7.164;2024-01-06T00:14:36;36032.72;;;-140.95;66.14
38054;BME280;23859;50.672;7.164;2024-01-06T00:17:02;36038.75;;;-140.95;66.92
38054;BME280;23859;50.672;7.164;2024-01-06T00:19:28;36038.75;;;-140.95;67.01
38054;BME280;23859;50.672;7.164;2024-01-06T00:21:54;36060.88;;;-140.95;66.70
38054;BME280;23859;50.672;7.164;2024-01-06T00:24:20;36058.84;;;-140.95;66.10
38054;BME280;23859;50.672;7.164;2024-01-06T00:26:49;36024.69;;;-140.95;67.00
38054;BME280;23859;50.672;7.164;2024-01-06T00:29:15;36012.63;;;-140.95;67.03
38054;BME280;23859;50.672;7.164;2024-01-06T00:31:41;36046.78;;;-140.95;66.91
38054;BME280;23859;50.672;7.164;2024-01-06T00:34:07;36046.78;;;-140.95;67.64
38054;BME280;23859;50.672;7.164;2024-01-06T00:36:33;36060.88;;;-140.95;67.97
38054;BME280;23859;50.672;7.164;2024-01-06T00:38:59;36028.72;;;-140.95;66.98
38054;BME280;23859;50.672;7.164;2024-01-06T00:41:26;36036.75;;;-140.95;66.79
38054;BME280;23859;50.672;7.164;2024-01-06T00:43:54;36054.84;;;-140.95;66.44
38054;BME280;23859;50.672;7.164;2024-01-06T00:46:20;36022.69;;;-140.95;67.02
38054;BME280;23859;50.672;7.164;2024-01-06T00:48:46;36030.72;;;-140.95;68.31
38054;BME280;23859;50.672;7.164;2024-01-06T00:51:12;36026.69;;;-140.95;67.16
38054;BME280;23859;50.672;7.164;2024-01-06T00:53:38;36024.69;;;-140.95;66.69
38054;BME280;23859;50.672;7.164;2024-01-06T00:56:07;36046.78;;;-140.95;67.01
38054;BME280;23859;50.672;7.164;2024-01-06T00:58:36;36036.75;;;-140.95;67.52
38054;BME280;23859;50.672;7.164;2024-01-06T01:01:02;36072.91;;;-140.95;68.21
38054;BME280;23859;50.672;7.164;2024-01-06T01:03:28;36060.88;;;-140.95;67.74
38054;BME280;23859;50.672;7.164;2024-01-06T01:05:54;36060.88;;;-140.95;67.79
38054;BME280;23859;50.672;7.164;2024-01-06T01:08:20;36032.72;;;-140.95;67.74
38054;BME280;23859;50.672;7.164;2024-01-06T01:10:46;36028.72;;;-140.95;67.29
38054;BME280;23859;50.672;7.164;2024-01-06T01:13:12;36044.78;;;-140.95;68.00
38054;BME280;23859;50.672;7.164;2024-01-06T01:15:41;36030.72;;;-140.95;67.65
38054;BME280;23859;50.672;7.164;2024-01-06T01:18:07;36048.81;;;-140.95;68.36
38054;BME280;23859;50.672;7.164;2024-01-06T01:20:33;36016.66;;;-140.95;68.17
38054;BME280;23859;50.672;7.164;2024-01-06T01:22:59;36048.81;;;-140.95;68.73
38054;BME280;23859;50.672;7.164;2024-01-06T01:25:25;36064.88;;;-140.95;69.29
38054;BME280;23859;50.672;7.164;2024-01-06T01:27:51;36042.78;;;-140.95;69.34
38054;BME280;23859;50.672;7.164;2024-01-06T01:30:17;36060.88;;;-140.95;69.04
38054;BME280;23859;50.672;7.164;2024-01-06T01:32:43;36046.78;;;-140.95;68.72
38054;BME280;23859;50.672;7.164;2024-01-06T01:35:10;36044.78;;;-140.95;68.91
38054;BME280;23859;50.672;7.164;2024-01-06T01:37:36;36052.81;;;-140.95;69.40
38054;BME280;23859;50.672;7.164;2024-01-06T01:40:02;36028.72;;;-140.95;68.96
38054;BME280;23859;50.672;7.164;2024-01-06T01:42:28;36032.72;;;-140.95;68.64
38054;BME280;23859;50.672;7.164;2024-01-06T01:44:54;36032.72;;;-140.95;68.34
38054;BME280;23859;50.672;7.164;2024-01-06T01:47:20;36052.81;;;-140.95;68.77
38054;BME280;23859;50.672;7.164;2024-01-06T01:49:47;36048.81;;;-140.95;68.14
38054;BME280;23859;50.672;7.164;2024-01-06T01:52:14;36028.72;;;-140.95;68.12
38054;BME280;23859;50.672;7.164;2024-01-06T01:54:41;36080.97;;;-140.95;69.74
38054;BME280;23859;50.672;7.164;2024-01-06T01:57:08;36058.84;;;-140.95;69.61
38054;BME280;23859;50.672;7.164;2024-01-06T01:59:35;36072.91;;;-140.95;70.16
38054;BME280;23859;50.672;7.164;2024-01-06T02:02:03;36052.81;;;-140.95;71.25
38054;BME280;23859;50.672;7.164;2024-01-06T02:04:29;36072.91;;;-140.95;74.21
38054;BME280;23859;50.672;7.164;2024-01-06T02:06:55;36072.91;;;-140.95;75.10
38054;BME280;23859;50.672;7.164;2024-01-06T02:09:21;36072.91;;;-140.95;75.00
38054;BME280;23859;50.672;7.164;2024-01-06T02:11:52;36068.91;;;-140.95;75.68
38054;BME280;23859;50.672;7.164;2024-01-06T02:14:19;36072.91;;;-140.95;76.37
38054;BME280;23859;50.672;7.164;2024-01-06T02:16:45;36097.03;;;-140.95;76.64
38054;BME280;23859;50.672;7.164;2024-01-06T02:19:11;36064.88;;;-140.95;76.21
38054;BME280;23859;50.672;7.164;2024-01-06T02:24:11;36072.91;;;-140.95;76.24
38054;BME280;23859;50.672;7.164;2024-01-06T02:26:37;36048.81;;;-140.95;77.47
38054;BME280;23859;50.672;7.164;2024-01-06T02:29:03;36078.94;;;-140.95;78.35
38054;BME280;23859;50.672;7.164;2024-01-06T02:31:29;36097.03;;;-140.95;79.11
38054;BME280;23859;50.672;7.164;2024-01-06T02:33:55;36109.09;;;-140.95;78.84
38054;BME280;23859;50.672;7.164;2024-01-06T02:36:24;36119.13;;;-140.95;79.58
38054;BME280;23859;50.672;7.164;2024-01-06T02:38:50;36086.97;;;-140.95;80.46
38054;BME280;23859;50.672;7.164;2024-01-06T02:41:16;36101.03;;;-140.95;80.34
38054;BME280;23859;50.672;7.164;2024-01-06T02:43:42;36072.91;;;-140.95;81.12
38054;BME280;23859;50.672;7.164;2024-01-06T02:46:08;36080.97;;;-140.95;81.25
38054;BME280;23859;50.672;7.164;2024-01-06T02:48:35;36121.13;;;-140.95;81.23
38054;BME280;23859;50.672;7.164;2024-01-06T02:51:03;36093.00;;;-140.95;80.76
38054;BME280;23859;50.672;7.164;2024-01-06T02:53:32;36089.00;;;-140.95;80.65
38054;BME280;23859;50.672;7.164;2024-01-06T02:55:58;36105.06;;;-140.95;81.19
38054;BME280;23859;50.672;7.164;2024-01-06T02:58:24;36109.09;;;-140.95;81.79
38054;BME280;23859;50.672;7.164;2024-01-06T03:00:50;36066.88;;;-140.95;81.16
38054;BME280;23859;50.672;7.164;2024-01-06T03:03:16;36099.03;;;-140.95;81.22
38054;BME280;23859;50.672;7.164;2024-01-06T03:05:42;36091.00;;;-140.95;80.42
38054;BME280;23859;50.672;7.164;2024-01-06T03:08:08;36064.88;;;-140.95;80.85
38054;BME280;23859;50.672;7.164;2024-01-06T03:10:34;36056.84;;;-140.95;80.33
38054;BME280;23859;50.672;7.164;2024-01-06T03:13:00;36101.03;;;-140.95;79.71
38054;BME280;23859;50.672;7.164;2024-01-06T03:15:26;36052.81;;;-140.95;80.12
38054;BME280;23859;50.672;7.164;2024-01-06T03:17:54;36056.84;;;-140.95;80.31
38054;BME280;23859;50.672;7.164;2024-01-06T03:20:20;36064.88;;;-140.95;80.16
38054;BME280;23859;50.672;7.164;2024-01-06T03:22:46;36070.91;;;-140.95;80.39
38054;BME280;23859;50.672;7.164;2024-01-06T03:25:13;36062.88;;;-140.95;81.22
38054;BME280;23859;50.672;7.164;2024-01-06T03:27:39;36101.03;;;-140.95;81.48
38054;BME280;23859;50.672;7.164;2024-01-06T03:30:05;36072.91;;;-140.95;82.91
38054;BME280;23859;50.672;7.164;2024-01-06T03:32:31;36103.06;;;-140.95;82.70
38054;BME280;23859;50.672;7.164;2024-01-06T03:35:00;36072.91;;;-140.95;82.88
38054;BME280;23859;50.672;7.164;2024-01-06T03:37:26;36093.00;;;-140.95;83.28
38054;BME280;23859;50.672;7.164;2024-01-06T03:39:52;36068.91;;;-140.95;83.95
38054;BME280;23859;50.672;7.164;2024-01-06T03:42:18;36099.03;;;-140.95;84.54
38054;BME280;23859;50.672;7.164;2024-01-06T03:44:45;36084.97;;;-140.95;84.55
38054;BME280;23859;50.672;7.164;2024-01-06T03:47:11;36072.91;;;-140.95;84.71
38054;BME280;23859;50.672;7.164;2024-01-06T03:49:37;36089.00;;;-140.95;84.31
38054;BME280;23859;50.672;7.164;2024-01-06T03:52:03;35052.31;;;-140.95;84.29
38054;BME280;23859;50.672;7.164;2024-01-06T03:54:33;36117.13;;;-140.95;84.71
38054;BME280;23859;50.672;7.164;2024-01-06T03:56:59;36105.06;;;-140.95;84.92
38054;BME280;23859;50.672;7.164;2024-01-06T03:59:25;36074.94;;;-140.95;85.05
38054;BME280;23859;50.672;7.164;2024-01-06T04:01:51;36084.97;;;-140.95;84.27
38054;BME280;23859;50.672;7.164;2024-01-06T04:04:17;36072.91;;;-140.95;84.03
38054;BME280;23859;50.672;7.164;2024-01-06T04:06:43;36084.97;;;-140.95;84.09
38054;BME280;23859;50.672;7.164;2024-01-06T04:09:09;36121.13;;;-140.95;84.64
38054;BME280;23859;50.672;7.164;2024-01-06T04:11:36;36089.00;;;-140.95;84.95
38054;BME280;23859;50.672;7.164;2024-01-06T04:14:02;36097.03;;;-140.95;85.03
38054;BME280;23859;50.672;7.164;2024-01-06T04:16:28;36119.13;;;-140.95;85.19
38054;BME280;23859;50.672;7.164;2024-01-06T04:18:54;36078.94;;;-140.95;85.78
38054;BME280;23859;50.672;7.164;2024-01-06T04:21:20;36097.03;;;-140.95;85.53
38054;BME280;23859;50.672;7.164;2024-01-06T04:23:46;36091.00;;;-140.95;85.62
38054;BME280;23859;50.672;7.164;2024-01-06T04:26:12;36080.97;;;-140.95;85.45
38054;BME280;23859;50.672;7.164;2024-01-06T04:28:39;36097.03;;;-140.95;85.66
38054;BME280;23859;50.672;7.164;2024-01-06T04:31:05;36133.19;;;-140.95;85.69
38054;BME280;23859;50.672;7.164;2024-01-06T04:33:31;36125.16;;;-140.95;85.77
38054;BME280;23859;50.672;7.164;2024-01-06T04:35:57;36093.00;;;-140.95;85.53
38054;BME280;23859;50.672;7.164;2024-01-06T04:38:24;36101.03;;;-140.95;85.49
38054;BME280;23859;50.672;7.164;2024-01-06T04:40:50;36101.03;;;-140.95;85.58
38054;BME280;23859;50.672;7.164;2024-01-06T04:43:16;36064.88;;;-140.95;85.63
38054;BME280;23859;50.672;7.164;2024-01-06T04:45:43;35992.53;;;-140.95;85.54
38054;BME280;23859;50.672;7.164;2024-01-06T04:48:09;36078.94;;;-140.95;85.64
38054;BME280;23859;50.672;7.164;2024-01-06T04:50:35;36105.06;;;-140.95;85.65
38054;BME280;23859;50.672;7.164;2024-01-06T04:53:01;36117.13;;;-140.95;85.81
38054;BME280;23859;50.672;7.164;2024-01-06T04:55:27;36078.94;;;-140.95;85.88
38054;BME280;23859;50.672;7.164;2024-01-06T04:57:54;36113.09;;;-140.95;85.64
38054;BME280;23859;50.672;7.164;2024-01-06T05:00:20;36099.03;;;-140.95;85.57
38054;BME280;23859;50.672;7.164;2024-01-06T05:02:46;36091.00;;;-140.95;85.75
38054;BME280;23859;50.672;7.164;2024-01-06T05:05:12;36078.94;;;-140.95;85.79
38054;BME280;23859;50.672;7.164;2024-01-06T05:07:41;36070.91;;;-140.95;86.31
38054;BME280;23859;50.672;7.164;2024-01-06T05:10:10;36097.03;;;-140.95;86.35
38054;BME280;23859;50.672;7.164;2024-01-06T05:12:36;36052.81;;;-140.95;86.66
38054;BME280;23859;50.672;7.164;2024-01-06T05:15:02;36097.03;;;-140.95;86.32
38054;BME280;23859;50.672;7.164;2024-01-06T05:17:31;36089.00;;;-140.95;86.26
38054;BME280;23859;50.672;7.164;2024-01-06T05:19:57;36089.00;;;-140.95;86.17
38054;BME280;23859;50.672;7.164;2024-01-06T05:22:23;36115.13;;;-140.95;86.25
38054;BME280;23859;50.672;7.164;2024-01-06T05:24:49;36076.94;;;-140.95;86.36
38054;BME280;23859;50.672;7.164;2024-01-06T05:27:19;36072.91;;;-140.95;86.50
38054;BME280;23859;50.672;7.164;2024-01-06T05:29:45;36089.00;;;-140.95;86.59
38054;BME280;23859;50.672;7.164;2024-01-06T05:32:11;36068.91;;;-140.95;86.42
38054;BME280;23859;50.672;7.164;2024-01-06T05:34:37;36089.00;;;-140.95;86.51
38054;BME280;23859;50.672;7.164;2024-01-06T05:37:03;36107.06;;;-140.95;86.41
38054;BME280;23859;50.672;7.164;2024-01-06T05:39:29;36103.06;;;-140.95;86.51
38054;BME280;23859;50.672;7.164;2024-01-06T05:41:55;36072.91;;;-140.95;86.39
38054;BME280;23859;50.672;7.164;2024-01-06T05:44:22;36080.97;;;-140.95;86.55
38054;BME280;23859;50.672;7.164;2024-01-06T05:46:48;36099.03;;;-140.95;86.49
38054;BME280;23859;50.672;7.164;2024-01-06T05:49:14;36040.78;;;-140.95;86.87
38054;BME280;23859;50.672;7.164;2024-01-06T05:51:45;36097.03;;;-140.95;86.68
38054;BME280;23859;50.672;7.164;2024-01-06T05:54:11;36133.19;;;-140.95;86.75
38054;BME280;23859;50.672;7.164;2024-01-06T05:56:37;36093.00;;;-140.95;86.68
38054;BME280;23859;50.672;7.164;2024-01-06T05:59:03;36097.03;;;-140.95;86.82
38054;BME280;23859;50.672;7.164;2024-01-06T06:01:29;36084.97;;;-140.95;87.08
38054;BME280;23859;50.672;7.164;2024-01-06T06:03:55;36109.09;;;-140.95;87.24
38054;BME280;23859;50.672;7.164;2024-01-06T06:06:21;36113.09;;;-140.95;87.15
38054;BME280;23859;50.672;7.164;2024-01-06T06:08:47;36101.03;;;-140.95;87.37
38054;BME280;23859;50.672;7.164;2024-01-06T06:11:14;36097.03;;;-140.95;87.20
38054;BME280;23859;50.672;7.164;2024-01-06T06:13:41;36109.09;;;-140.95;86.84
38054;BME280;23859;50.672;7.164;2024-01-06T06:16:10;36070.91;;;-140.95;86.59
38054;BME280;23859;50.672;7.164;2024-01-06T06:18:38;36086.97;;;-140.95;86.68
38054;BME280;23859;50.672;7.164;2024-01-06T06:21:05;36050.81;;;-140.95;86.13
38054;BME280;23859;50.672;7.164;2024-01-06T06:23:32;36091.00;;;-140.95;85.42
38054;BME280;23859;50.672;7.164;2024-01-06T06:25:58;36068.91;;;-140.95;85.89
38054;BME280;23859;50.672;7.164;2024-01-06T06:28:28;36076.94;;;-140.95;85.87
38054;BME280;23859;50.672;7.164;2024-01-06T06:30:56;36093.00;;;-140.95;85.85
38054;BME280;23859;50.672;7.164;2024-01-06T06:33:22;36595.38;;;-140.95;84.56
38054;BME280;23859;50.672;7.164;2024-01-06T06:35:48;36089.00;;;-140.95;84.63
38054;BME280;23859;50.672;7.164;2024-01-06T06:38:14;36058.84;;;-140.95;85.34
38054;BME280;23859;50.672;7.164;2024-01-06T06:40:40;36072.91;;;-140.95;84.81
38054;BME280;23859;50.672;7.164;2024-01-06T06:43:06;36066.88;;;-140.95;84.44
38054;BME280;23859;50.672;7.164;2024-01-06T06:45:34;36074.94;;;-140.95;84.23
38054;BME280;23859;50.672;7.164;2024-01-06T06:48:00;36089.00;;;-140.95;84.17
38054;BME280;23859;50.672;7.164;2024-01-06T06:50:26;36060.88;;;-140.95;84.70
38054;BME280;23859;50.672;7.164;2024-01-06T06:52:52;36064.88;;;-140.95;84.54
38054;BME280;23859;50.672;7.164;2024-01-06T06:55:18;36084.97;;;-140.95;84.40
38054;BME280;23859;50.672;7.164;2024-01-06T06:57:45;36076.94;;;-140.95;84.89
38054;BME280;23859;50.672;7.164;2024-01-06T07:00:11;36078.94;;;-140.95;84.40
38054;BME280;23859;50.672;7.164;2024-01-06T07:02:38;36054.84;;;-140.95;84.76
38054;BME280;23859;50.672;7.164;2024-01-06T07:05:04;36322.09;;;-140.95;83.82
38054;BME280;23859;50.672;7.164;2024-01-06T07:07:33;36064.88;;;-140.95;83.39
38054;BME280;23859;50.672;7.164;2024-01-06T07:10:01;36076.94;;;-140.95;83.20
38054;BME280;23859;50.672;7.164;2024-01-06T07:12:31;36097.03;;;-140.95;83.56
38054;BME280;23859;50.672;7.164;2024-01-06T07:14:57;36082.97;;;-140.95;83.47
38054;BME280;23859;50.672;7.164;2024-01-06T07:17:26;36072.91;;;-140.95;82.09
38054;BME280;23859;50.672;7.164;2024-01-06T07:19:52;36125.16;;;-140.95;82.58
38054;BME280;23859;50.672;7.164;2024-01-06T07:22:19;36121.13;;;-140.95;82.81
38054;BME280;23859;50.672;7.164;2024-01-06T07:24:45;36101.03;;;-140.95;82.68
38054;BME280;23859;50.672;7.164;2024-01-06T07:27:12;36099.03;;;-140.95;82.96
38054;BME280;23859;50.672;7.164;2024-01-06T07:29:38;36115.13;;;-140.95;82.40
38054;BME280;23859;50.672;7.164;2024-01-06T07:32:04;36125.16;;;-140.95;82.48
38054;BME280;23859;50.672;7.164;2024-01-06T07:34:34;36117.13;;;-140.95;83.06
38054;BME280;23859;50.672;7.164;2024-01-06T07:37:03;36107.06;;;-140.95;83.06
38054;BME280;23859;50.672;7.164;2024-01-06T07:39:29;36121.13;;;-140.95;83.11
38054;BME280;23859;50.672;7.164;2024-01-06T07:41:55;36086.97;;;-140.95;82.09
38054;BME280;23859;50.672;7.164;2024-01-06T07:44:21;36125.16;;;-140.95;82.56
38054;BME280;23859;50.672;7.164;2024-01-06T07:46:50;36084.97;;;-140.95;82.39
38054;BME280;23859;50.672;7.164;2024-01-06T07:49:17;36095.03;;;-140.95;82.14
38054;BME280;23859;50.672;7.164;2024-01-06T07:51:43;36101.03;;;-140.95;82.37
38054;BME280;23859;50.672;7.164;2024-01-06T07:54:09;36119.13;;;-140.95;82.35
38054;BME280;23859;50.672;7.164;2024-01-06T07:56:36;36115.13;;;-140.95;82.82
38054;BME280;23859;50.672;7.164;2024-01-06T07:59:03;36117.13;;;-140.95;82.99
38054;BME280;23859;50.672;7.164;2024-01-06T08:01:29;36097.03;;;-140.95;83.22
38054;BME280;23859;50.672;7.164;2024-01-06T08:03:55;36109.09;;;-140.95;83.59
38054;BME280;23859;50.672;7.164;2024-01-06T08:06:21;36111.09;;;-140.95;83.33
38054;BME280;23859;50.672;7.164;2024-01-06T08:08:47;36105.06;;;-140.95;82.79
38054;BME280;23859;50.672;7.164;2024-01-06T08:11:13;36107.06;;;-140.95;82.86
38054;BME280;23859;50.672;7.164;2024-01-06T08:13:39;36123.16;;;-140.95;82.71
38054;BME280;23859;50.672;7.164;2024-01-06T08:16:05;36093.00;;;-140.95;82.20
38054;BME280;23859;50.672;7.164;2024-01-06T08:18:31;36093.00;;;-140.95;81.57
38054;BME280;23859;50.672;7.164;2024-01-06T08:21:00;36117.13;;;-140.95;82.52
38054;BME280;23859;50.672;7.164;2024-01-06T08:23:29;36101.03;;;-140.95;83.41
38054;BME280;23859;50.672;7.164;2024-01-06T08:25:55;36149.28;;;-140.95;83.17
38054;BME280;23859;50.672;7.164;2024-01-06T08:28:22;36123.16;;;-140.95;83.03
38054;BME280;23859;50.672;7.164;2024-01-06T08:30:49;36137.22;;;-140.95;82.51
38054;BME280;23859;50.672;7.164;2024-01-06T08:33:15;36117.13;;;-140.95;83.35
38054;BME280;23859;50.672;7.164;2024-01-06T08:35:43;36155.31;;;-140.95;84.11
38054;BME280;23859;50.672;7.164;2024-01-06T08:38:09;36161.31;;;-140.95;83.79
38054;BME280;23859;50.672;7.164;2024-01-06T08:40:36;36141.22;;;-140.95;83.76
38054;BME280;23859;50.672;7.164;2024-01-06T08:43:02;36135.22;;;-140.95;83.95
38054;BME280;23859;50.672;7.164;2024-01-06T08:45:28;36123.16;;;-140.95;83.45
38054;BME280;23859;50.672;7.164;2024-01-06T08:47:55;36109.09;;;-140.95;83.39
38054;BME280;23859;50.672;7.164;2024-01-06T08:50:21;36105.06;;;-140.95;83.24
38054;BME280;23859;50.672;7.164;2024-01-06T08:52:47;36125.16;;;-140.95;82.32
38054;BME280;23859;50.672;7.164;2024-01-06T08:55:13;36099.03;;;-140.95;81.60
38054;BME280;23859;50.672;7.164;2024-01-06T08:57:39;36135.22;;;-140.95;81.57
38054;BME280;23859;50.672;7.164;2024-01-06T09:00:06;36121.13;;;-140.95;81.58
38054;BME280;23859;50.672;7.164;2024-01-06T09:02:32;36125.16;;;-140.95;82.41
38054;BME280;23859;50.672;7.164;2024-01-06T09:04:58;36121.13;;;-140.95;82.79
38054;BME280;23859;50.672;7.164;2024-01-06T09:07:24;36099.03;;;-140.95;81.42
38054;BME280;23859;50.672;7.164;2024-01-06T09:09:50;36101.03;;;-140.95;81.20
38054;BME280;23859;50.672;7.164;2024-01-06T09:12:17;36103.06;;;-140.95;80.63
38054;BME280;23859;50.672;7.164;2024-01-06T09:14:43;36119.13;;;-140.95;80.38
38054;BME280;23859;50.672;7.164;2024-01-06T09:17:09;36157.31;;;-140.95;81.59
38054;BME280;23859;50.672;7.164;2024-01-06T09:19:35;36129.19;;;-140.95;80.88
38054;BME280;23859;50.672;7.164;2024-01-06T09:22:01;36105.06;;;-140.95;81.42
38054;BME280;23859;50.672;7.164;2024-01-06T09:24:27;36121.13;;;-140.95;79.80
38054;BME280;23859;50.672;7.164;2024-01-06T09:26:54;36101.03;;;-140.95;79.12
38054;BME280;23859;50.672;7.164;2024-01-06T09:29:23;36091.00;;;-140.95;79.32
38054;BME280;23859;50.672;7.164;2024-01-06T09:31:52;36113.09;;;-140.95;79.16
38054;BME280;23859;50.672;7.164;2024-01-06T09:34:18;36107.06;;;-140.95;79.64
38054;BME280;23859;50.672;7.164;2024-01-06T09:36:44;36074.94;;;-140.95;78.90
38054;BME280;23859;50.672;7.164;2024-01-06T09:39:12;36105.06;;;-140.95;78.18
38054;BME280;23859;50.672;7.164;2024-01-06T09:41:38;36113.09;;;-140.95;78.72
38054;BME280;23859;50.672;7.164;2024-01-06T09:44:04;36129.19;;;-140.95;79.48
38054;BME280;23859;50.672;7.164;2024-01-06T09:46:31;36095.03;;;-140.95;79.33
38054;BME280;23859;50.672;7.164;2024-01-06T09:48:58;36121.13;;;-140.95;79.91
38054;BME280;23859;50.672;7.164;2024-01-06T09:51:25;36113.09;;;-140.95;80.24
38054;BME280;23859;50.672;7.164;2024-01-06T09:54:00;36089.00;;;-140.95;80.11
38054;BME280;23859;50.672;7.164;2024-01-06T09:56:29;36113.09;;;-140.95;79.99
38054;BME280;23859;50.672;7.164;2024-01-06T09:58:58;36125.16;;;-140.95;81.52
38054;BME280;23859;50.672;7.164;2024-01-06T10:01:24;36121.13;;;-140.95;80.53
38054;BME280;23859;50.672;7.164;2024-01-06T10:03:50;36171.38;;;-140.95;80.35
38054;BME280;23859;50.672;7.164;2024-01-06T10:06:19;36068.91;;;-140.95;80.03
38054;BME280;23859;50.672;7.164;2024-01-06T10:08:50;36097.03;;;-140.95;80.47
38054;BME280;23859;50.672;7.164;2024-01-06T10:11:17;36080.97;;;-140.95;80.63
38054;BME280;23859;50.672;7.164;2024-01-06T10:13:43;36109.09;;;-140.95;80.27
38054;BME280;23859;50.672;7.164;2024-01-06T10:16:12;36167.34;;;-140.95;81.14
38054;BME280;23859;50.672;7.164;2024-01-06T10:18:38;36099.03;;;-140.95;80.47
38054;BME280;23859;50.672;7.164;2024-01-06T10:21:07;36113.09;;;-140.95;81.02
38054;BME280;23859;50.672;7.164;2024-01-06T10:23:34;36105.06;;;-140.95;81.10
38054;BME280;23859;50.672;7.164;2024-01-06T10:26:03;36117.13;;;-140.95;81.35
38054;BME280;23859;50.672;7.164;2024-01-06T10:28:29;36105.06;;;-140.95;80.44
38054;BME280;23859;50.672;7.164;2024-01-06T10:30:56;36109.09;;;-140.95;79.31
38054;BME280;23859;50.672;7.164;2024-01-06T10:33:24;36109.09;;;-140.95;78.92
38054;BME280;23859;50.672;7.164;2024-01-06T10:35:50;36113.09;;;-140.95;80.28
38054;BME280;23859;50.672;7.164;2024-01-06T10:38:18;36084.97;;;-140.95;79.10
38054;BME280;23859;50.672;7.164;2024-01-06T10:41:02;36095.03;;;-140.95;79.58
38054;BME280;23859;50.672;7.164;2024-01-06T10:43:33;36058.84;;;-140.95;78.65
38054;BME280;23859;50.672;7.164;2024-01-06T10:46:06;36052.81;;;-140.95;78.57
38054;BME280;23859;50.672;7.164;2024-01-06T10:48:36;36028.72;;;-140.95;77.87
38054;BME280;23859;50.672;7.164;2024-01-06T10:51:09;36076.94;;;-140.95;75.60
38054;BME280;23859;50.672;7.164;2024-01-06T10:53:35;36050.81;;;-140.95;75.55
38054;BME280;23859;50.672;7.164;2024-01-06T10:56:05;36040.78;;;-140.95;76.85
38054;BME280;23859;50.672;7.164;2024-01-06T10:58:36;36060.88;;;-140.95;77.36
38054;BME280;23859;50.672;7.164;2024-01-06T11:01:09;36056.84;;;-140.95;76.74
38054;BME280;23859;50.672;7.164;2024-01-06T11:03:42;36060.88;;;-140.95;75.89
38054;BME280;23859;50.672;7.164;2024-01-06T11:06:09;36054.84;;;-140.95;77.15
38054;BME280;23859;50.672;7.164;2024-01-06T11:08:44;36060.88;;;-140.95;75.12
38054;BME280;23859;50.672;7.164;2024-01-06T11:11:16;36052.81;;;-140.95;74.53
38054;BME280;23859;50.672;7.164;2024-01-06T11:13:46;36113.09;;;-140.95;74.81
38054;BME280;23859;50.672;7.164;2024-01-06T11:16:34;36095.03;;;-140.95;74.92
38054;BME280;23859;50.672;7.164;2024-01-06T11:19:00;36117.13;;;-140.95;75.62
38054;BME280;23859;50.672;7.164;2024-01-06T11:21:27;36097.03;;;-140.95;74.25
38054;BME280;23859;50.672;7.164;2024-01-06T11:24:18;36076.94;;;-140.95;74.35
38054;BME280;23859;50.672;7.164;2024-01-06T11:26:51;36121.13;;;-140.95;74.65
38054;BME280;23859;50.672;7.164;2024-01-06T11:29:23;36086.97;;;-140.95;74.19
38054;BME280;23859;50.672;7.164;2024-01-06T11:34:53;36121.13;;;-140.95;76.28
38054;BME280;23859;50.672;7.164;2024-01-06T11:37:24;36095.03;;;-140.95;76.81
38054;BME280;23859;50.672;7.164;2024-01-06T11:39:51;36101.03;;;-140.95;77.47
38054;BME280;23859;50.672;7.164;2024-01-06T11:42:19;36074.94;;;-140.95;76.19
38054;BME280;23859;50.672;7.164;2024-01-06T11:44:49;36082.97;;;-140.95;75.40
38054;BME280;23859;50.672;7.164;2024-01-06T11:47:16;36099.03;;;-140.95;75.07
38054;BME280;23859;50.672;7.164;2024-01-06T11:49:45;36107.06;;;-140.95;75.13
38054;BME280;23859;50.672;7.164;2024-01-06T11:52:17;36103.06;;;-140.95;75.19
38054;BME280;23859;50.672;7.164;2024-01-06T11:54:43;36121.13;;;-140.95;74.63
38054;BME280;23859;50.672;7.164;2024-01-06T11:57:09;36115.13;;;-140.95;75.15
38054;BME280;23859;50.672;7.164;2024-01-06T11:59:35;36113.09;;;-140.95;74.44
38054;BME280;23859;50.672;7.164;2024-01-06T12:02:02;36086.97;;;-140.95;74.59
38054;BME280;23859;50.672;7.164;2024-01-06T12:04:28;36093.00;;;-140.95;74.42
38054;BME280;23859;50.672;7.164;2024-01-06T12:07:05;36129.19;;;-140.95;74.63
38054;BME280;23859;50.672;7.164;2024-01-06T12:09:32;36157.31;;;-140.95;74.95
38054;BME280;23859;50.672;7.164;2024-01-06T12:12:02;36109.09;;;-140.95;76.62
38054;BME280;23859;50.672;7.164;2024-01-06T12:14:29;35253.19;;;-140.95;75.35
38054;BME280;23859;50.672;7.164;2024-01-06T12:16:55;36105.06;;;-140.95;76.51
38054;BME280;23859;50.672;7.164;2024-01-06T12:19:23;36163.34;;;-140.95;76.74
38054;BME280;23859;50.672;7.164;2024-01-06T12:21:50;36133.19;;;-140.95;76.18
38054;BME280;23859;50.672;7.164;2024-01-06T12:24:18;36133.19;;;-140.95;76.13
38054;BME280;23859;50.672;7.164;2024-01-06T12:26:46;36149.28;;;-140.95;76.19
38054;BME280;23859;50.672;7.164;2024-01-06T12:29:13;36121.13;;;-140.95;76.81
38054;BME280;23859;50.672;7.164;2024-01-06T12:31:42;36119.13;;;-140.95;77.09
38054;BME280;23859;50.672;7.164;2024-01-06T12:34:10;36137.22;;;-140.95;77.13
38054;BME280;23859;50.672;7.164;2024-01-06T12:36:37;36121.13;;;-140.95;76.96
38054;BME280;23859;50.672;7.164;2024-01-06T12:39:04;36145.25;;;-140.95;78.26
38054;BME280;23859;50.672;7.164;2024-01-06T12:41:31;36127.16;;;-140.95;77.81
38054;BME280;23859;50.672;7.164;2024-01-06T12:44:00;36143.25;;;-140.95;77.86
38054;BME280;23859;50.672;7.164;2024-01-06T12:46:28;36161.31;;;-140.95;78.95